createdAt,value
2017-09-15T00:02:16.928Z,1.33
2017-09-15T00:04:51.372Z,1.20
2017-09-15T00:07:25.809Z,1.05
2017-09-15T00:10:00.315Z,1.83
2017-09-15T00:12:34.674Z,1.25
2017-09-15T00:15:09.227Z,1.48
2017-09-15T00:17:43.661Z,1.17
2017-09-15T00:20:17.980Z,1.75
2017-09-15T00:22:53.364Z,1.80
2017-09-15T00:25:27.848Z,2.72
2017-09-15T00:28:02.268Z,1.70
2017-09-15T00:30:36.759Z,1.40
2017-09-15T00:33:11.852Z,1.40
2017-09-15T00:35:46.413Z,1.77
2017-09-15T00:38:21.508Z,1.30
2017-09-15T00:40:56.012Z,1.25
2017-09-15T00:43:30.344Z,1.40
2017-09-15T00:46:04.900Z,1.45
2017-09-15T00:48:40.146Z,1.10
2017-09-15T00:51:14.653Z,1.00
2017-09-15T00:53:49.301Z,1.45
2017-09-15T00:56:23.840Z,1.48
2017-09-15T00:58:58.344Z,1.65
2017-09-15T01:01:34.345Z,1.30
2017-09-15T01:04:08.701Z,1.50
2017-09-15T01:06:43.156Z,1.37
2017-09-15T01:09:17.619Z,1.30
2017-09-15T01:11:52.776Z,1.50
2017-09-15T01:14:28.008Z,2.95
2017-09-15T01:17:02.411Z,1.85
2017-09-15T01:19:36.726Z,1.33
2017-09-15T01:22:11.264Z,1.20
2017-09-15T01:24:45.709Z,2.17
2017-09-15T01:27:20.841Z,1.35
2017-09-15T01:29:55.234Z,1.42
2017-09-15T01:32:30.118Z,1.90
2017-09-15T01:35:04.498Z,1.80
2017-09-15T01:37:38.872Z,1.87
2017-09-15T01:40:13.428Z,2.03
2017-09-15T01:42:47.879Z,2.95
2017-09-15T01:45:22.446Z,1.10
2017-09-15T01:47:56.915Z,2.12
2017-09-15T01:50:31.458Z,1.70
2017-09-15T01:53:05.991Z,1.25
2017-09-15T01:55:40.303Z,1.80
2017-09-15T01:58:14.618Z,1.20
2017-09-15T02:00:48.987Z,1.37
2017-09-15T02:03:23.316Z,1.85
2017-09-15T02:05:57.787Z,2.00
2017-09-15T02:08:32.252Z,2.65
2017-09-15T02:11:07.535Z,1.80
2017-09-15T02:13:41.818Z,1.92
2017-09-15T02:16:16.306Z,2.17
2017-09-15T02:18:50.857Z,1.80
2017-09-15T02:21:26.119Z,2.05
2017-09-15T02:24:00.460Z,1.37
2017-09-15T02:26:34.880Z,1.40
2017-09-15T02:29:09.449Z,1.48
2017-09-15T02:31:44.013Z,1.90
2017-09-15T02:34:18.506Z,1.70
2017-09-15T02:36:52.824Z,1.40
2017-09-15T02:39:27.159Z,2.00
2017-09-15T02:42:02.381Z,2.70
2017-09-15T02:44:36.796Z,3.08
2017-09-15T02:47:11.181Z,1.90
2017-09-15T02:49:45.631Z,1.90
2017-09-15T02:52:20.007Z,1.65
2017-09-15T02:54:54.383Z,1.60
2017-09-15T02:57:28.942Z,2.58
2017-09-15T03:00:03.594Z,1.77
2017-09-15T03:02:38.840Z,2.40
2017-09-15T03:05:13.240Z,2.00
2017-09-15T03:07:47.747Z,2.75
2017-09-15T03:10:22.267Z,2.00
2017-09-15T03:12:56.897Z,1.70
2017-09-15T03:15:31.455Z,1.65
2017-09-15T03:18:06.696Z,2.15
2017-09-15T03:20:41.377Z,1.85
2017-09-15T03:23:15.798Z,1.80
2017-09-15T03:25:50.729Z,2.03
2017-09-15T03:28:25.421Z,2.17
2017-09-15T03:30:59.725Z,1.80
2017-09-15T03:33:34.272Z,1.55
2017-09-15T03:36:08.572Z,1.65
2017-09-15T03:38:43.109Z,2.00
2017-09-15T03:41:18.285Z,2.00
2017-09-15T03:43:52.685Z,2.03
2017-09-15T03:46:27.253Z,2.05
2017-09-15T03:49:01.747Z,1.60
2017-09-15T03:51:37.015Z,2.17
2017-09-15T03:54:11.358Z,1.90
2017-09-15T03:56:45.779Z,2.08
2017-09-15T03:59:20.353Z,1.65
2017-09-15T04:01:55.600Z,1.67
2017-09-15T04:04:30.163Z,3.22
2017-09-15T04:07:04.663Z,3.25
2017-09-15T04:09:39.005Z,1.70
2017-09-15T04:12:13.603Z,1.52
2017-09-15T04:14:48.984Z,2.25
2017-09-15T04:17:23.396Z,2.28
2017-09-15T04:19:58.840Z,2.05
2017-09-15T04:22:33.200Z,2.08
2017-09-15T04:25:07.556Z,2.40
2017-09-15T04:27:42.017Z,1.40
2017-09-15T04:30:16.488Z,1.90
2017-09-15T04:32:50.969Z,2.80
2017-09-15T04:35:25.350Z,2.25
2017-09-15T04:37:59.872Z,2.17
2017-09-15T04:40:34.281Z,2.25
2017-09-15T04:43:08.803Z,2.25
2017-09-15T04:45:43.306Z,1.58
2017-09-15T04:48:17.631Z,1.77
2017-09-15T04:50:52.168Z,1.85
2017-09-15T04:53:26.654Z,2.22
2017-09-15T04:56:01.063Z,2.30
2017-09-15T04:58:35.548Z,2.03
2017-09-15T05:01:10.011Z,1.98
2017-09-15T05:03:44.439Z,2.47
2017-09-15T05:06:18.937Z,1.73
2017-09-15T05:08:53.278Z,2.35
2017-09-15T05:11:27.795Z,1.30
2017-09-15T05:14:03.719Z,2.00
2017-09-15T05:16:38.121Z,1.60
2017-09-15T05:19:12.608Z,2.50
2017-09-15T05:21:47.243Z,2.00
2017-09-15T05:24:21.764Z,2.42
2017-09-15T05:26:56.372Z,1.48
2017-09-15T05:29:30.693Z,1.35
2017-09-15T05:32:05.107Z,1.62
2017-09-15T05:34:39.527Z,1.00
2017-09-15T05:37:14.935Z,1.65
2017-09-15T05:39:49.341Z,1.95
2017-09-15T05:42:23.802Z,2.03
2017-09-15T05:44:58.545Z,2.17
2017-09-15T05:47:33.799Z,2.80
2017-09-15T05:50:08.328Z,1.95
2017-09-15T05:52:42.806Z,1.70
2017-09-15T05:55:17.932Z,1.30
2017-09-15T05:57:53.167Z,1.95
2017-09-15T06:00:28.567Z,2.45
2017-09-15T06:03:02.930Z,1.10
2017-09-15T06:05:37.337Z,1.40
2017-09-15T06:08:11.756Z,1.17
2017-09-15T06:10:46.093Z,1.67
2017-09-15T06:13:20.600Z,1.45
2017-09-15T06:15:55.264Z,1.83
2017-09-15T06:18:29.890Z,2.08
2017-09-15T06:21:05.120Z,1.85
2017-09-15T06:23:39.648Z,1.20
2017-09-15T06:26:14.104Z,1.35
2017-09-15T06:28:48.495Z,1.00
2017-09-15T06:31:22.848Z,1.80
2017-09-15T06:33:57.320Z,2.03
2017-09-15T06:36:31.838Z,1.60
2017-09-15T06:39:06.284Z,1.60
2017-09-15T06:41:40.772Z,1.33
2017-09-15T06:44:15.134Z,1.45
2017-09-15T06:46:49.478Z,1.33
2017-09-15T06:49:23.839Z,3.10
2017-09-15T06:51:58.203Z,2.17
2017-09-15T06:54:32.713Z,1.83
2017-09-15T06:57:07.203Z,0.95
2017-09-15T06:59:41.572Z,1.58
2017-09-15T07:02:17.296Z,1.73
2017-09-15T07:04:51.748Z,1.60
2017-09-15T07:07:26.183Z,1.65
2017-09-15T07:10:00.550Z,2.50
2017-09-15T07:12:34.913Z,1.73
2017-09-15T07:15:09.392Z,1.73
2017-09-15T07:17:44.591Z,1.75
2017-09-15T07:20:19.199Z,2.97
2017-09-15T07:22:53.620Z,2.85
2017-09-15T07:25:28.288Z,2.60
2017-09-15T07:28:02.745Z,1.42
2017-09-15T07:30:37.212Z,2.67
2017-09-15T07:33:11.496Z,1.85
2017-09-15T07:35:45.896Z,2.08
2017-09-15T07:38:20.348Z,1.92
2017-09-15T07:40:54.788Z,3.47
2017-09-15T07:43:29.345Z,2.30
2017-09-15T07:46:03.803Z,1.77
2017-09-15T07:48:38.790Z,2.08
2017-09-15T07:51:13.179Z,1.85
2017-09-15T07:53:47.696Z,2.12
2017-09-15T07:56:22.375Z,1.90
2017-09-15T07:58:57.010Z,2.15
2017-09-15T08:01:31.638Z,2.30
2017-09-15T08:04:06.120Z,1.87
2017-09-15T08:06:40.595Z,2.12
2017-09-15T08:09:15.044Z,1.52
2017-09-15T08:11:49.380Z,2.80
2017-09-15T08:14:23.863Z,2.00
2017-09-15T08:16:58.504Z,1.27
2017-09-15T08:19:33.317Z,1.60
2017-09-15T08:22:08.490Z,1.50
2017-09-15T08:24:43.138Z,2.05
2017-09-15T08:27:18.419Z,1.40
2017-09-15T08:29:52.850Z,2.30
2017-09-15T08:32:27.361Z,1.48
2017-09-15T08:35:02.568Z,1.75
2017-09-15T08:37:37.126Z,0.95
2017-09-15T08:40:11.450Z,1.58
2017-09-15T08:42:45.899Z,1.50
2017-09-15T08:45:20.412Z,1.73
2017-09-15T08:47:54.906Z,2.20
2017-09-15T08:50:29.195Z,1.55
2017-09-15T08:53:04.487Z,2.17
2017-09-15T08:55:38.902Z,1.00
2017-09-15T08:58:13.689Z,1.45
2017-09-15T09:00:48.008Z,1.67
2017-09-15T09:03:22.401Z,3.55
2017-09-15T09:05:56.977Z,2.15
2017-09-15T09:08:31.378Z,2.15
2017-09-15T09:11:06.661Z,1.55
2017-09-15T09:13:40.992Z,1.27
2017-09-15T09:16:15.543Z,1.10
2017-09-15T09:18:50.040Z,1.40
2017-09-15T09:21:25.303Z,1.30
2017-09-15T09:23:59.821Z,2.33
2017-09-15T09:26:34.352Z,1.92
2017-09-15T09:29:08.797Z,1.40
2017-09-15T09:31:43.314Z,1.67
2017-09-15T09:34:17.837Z,0.85
2017-09-15T09:36:52.281Z,1.42
2017-09-15T09:39:26.715Z,3.03
2017-09-15T09:42:01.228Z,3.55
2017-09-15T09:44:35.577Z,3.78
2017-09-15T09:47:10.024Z,1.92
2017-09-15T09:49:44.361Z,1.15
2017-09-15T09:52:18.962Z,1.08
2017-09-15T09:54:53.480Z,1.23
2017-09-15T09:57:28.596Z,1.20
2017-09-15T10:00:03.098Z,1.55
2017-09-15T10:02:37.664Z,1.20
2017-09-15T10:05:12.076Z,1.70
2017-09-15T10:07:46.560Z,1.50
2017-09-15T10:10:21.252Z,1.10
2017-09-15T10:12:55.627Z,1.62
2017-09-15T10:15:30.181Z,0.95
2017-09-15T10:18:04.639Z,1.80
2017-09-15T10:20:39.047Z,1.75
2017-09-15T10:23:13.476Z,1.33
2017-09-15T10:25:47.796Z,1.83
2017-09-15T10:28:22.184Z,1.98
2017-09-15T10:30:57.419Z,1.62
2017-09-15T10:33:31.823Z,1.30
2017-09-15T10:36:06.457Z,1.90
2017-09-15T10:38:40.795Z,1.20
2017-09-15T10:41:15.370Z,1.42
2017-09-15T10:43:49.714Z,1.00
2017-09-15T10:46:24.168Z,1.73
2017-09-15T10:48:59.441Z,0.98
2017-09-15T10:51:33.885Z,1.17
2017-09-15T10:54:08.453Z,1.02
2017-09-15T10:56:43.041Z,1.10
2017-09-15T10:59:23.250Z,1.05
2017-09-15T11:01:57.827Z,1.45
2017-09-15T11:04:32.240Z,1.33
2017-09-15T11:07:06.602Z,1.33
2017-09-15T11:09:41.124Z,1.65
2017-09-15T11:12:15.535Z,1.20
2017-09-15T11:14:49.868Z,1.45
2017-09-15T11:17:24.379Z,1.90
2017-09-15T11:19:58.843Z,1.23
2017-09-15T11:22:33.416Z,1.70
2017-09-15T11:25:07.763Z,1.25
2017-09-15T11:27:42.368Z,1.42
2017-09-15T11:30:16.818Z,1.50
2017-09-15T11:32:51.561Z,1.23
2017-09-15T11:35:26.051Z,1.37
2017-09-15T11:38:00.826Z,1.50
2017-09-15T11:40:35.311Z,1.20
2017-09-15T11:43:10.581Z,1.33
2017-09-15T11:45:44.935Z,1.77
2017-09-15T11:48:19.288Z,1.65
2017-09-15T11:50:54.529Z,1.50
2017-09-15T11:53:29.104Z,1.45
2017-09-15T11:56:03.677Z,1.95
2017-09-15T11:58:38.224Z,1.45
2017-09-15T12:01:13.264Z,1.70
2017-09-15T12:03:47.679Z,1.00
2017-09-15T12:06:22.175Z,0.90
2017-09-15T12:08:56.709Z,1.35
2017-09-15T12:11:31.191Z,1.42
2017-09-15T12:14:05.546Z,1.70
2017-09-15T12:16:40.165Z,1.20
2017-09-15T12:19:14.553Z,1.15
2017-09-15T12:21:48.952Z,1.10
2017-09-15T12:24:23.407Z,1.10
2017-09-15T12:26:57.813Z,1.10
2017-09-15T12:29:32.331Z,1.15
2017-09-15T12:32:06.888Z,1.12
2017-09-15T12:34:41.486Z,0.62
2017-09-15T12:37:15.788Z,1.00
2017-09-15T12:39:50.295Z,1.37
2017-09-15T12:42:24.672Z,0.50
2017-09-15T12:44:59.088Z,1.10
2017-09-15T12:47:33.763Z,1.05
2017-09-15T12:50:08.257Z,1.37
2017-09-15T12:52:43.451Z,0.90
2017-09-15T12:55:18.055Z,1.92
2017-09-15T12:57:53.319Z,2.70
2017-09-15T13:00:27.686Z,1.55
2017-09-15T13:03:02.053Z,1.05
2017-09-15T13:05:37.553Z,1.30
2017-09-15T13:08:11.994Z,0.90
2017-09-15T13:10:46.353Z,1.00
2017-09-15T13:13:20.982Z,1.25
2017-09-15T13:15:55.365Z,0.80
2017-09-15T13:18:29.968Z,1.10
2017-09-15T13:21:04.412Z,1.20
2017-09-15T13:23:38.903Z,0.77
2017-09-15T13:26:13.355Z,0.90
2017-09-15T13:28:48.011Z,1.10
2017-09-15T13:31:22.412Z,1.30
2017-09-15T13:33:57.563Z,1.42
2017-09-15T13:36:32.028Z,1.10
2017-09-15T13:39:06.605Z,1.35
2017-09-15T13:41:40.964Z,2.20
2017-09-15T13:44:15.469Z,2.28
2017-09-15T13:46:50.806Z,1.70
2017-09-15T13:49:25.245Z,1.58
2017-09-15T13:51:59.903Z,0.95
2017-09-15T13:54:34.193Z,1.10
2017-09-15T13:57:08.522Z,0.95
2017-09-15T13:59:43.011Z,0.90
2017-09-15T14:02:17.729Z,0.90
2017-09-15T14:04:52.237Z,0.90
2017-09-15T14:07:27.552Z,0.95
2017-09-15T14:10:02.814Z,1.20
2017-09-15T14:12:37.291Z,1.12
2017-09-15T14:15:12.608Z,1.20
2017-09-15T14:17:47.226Z,1.17
2017-09-15T14:20:21.534Z,1.40
2017-09-15T14:22:56.006Z,0.90
2017-09-15T14:25:31.249Z,1.20
2017-09-15T14:28:06.004Z,1.33
2017-09-15T14:30:40.441Z,1.27
2017-09-15T14:33:14.818Z,1.50
2017-09-15T14:35:49.236Z,1.40
2017-09-15T14:38:23.662Z,1.17
2017-09-15T14:40:57.977Z,1.67
2017-09-15T14:43:32.627Z,2.10
2017-09-15T14:46:07.057Z,1.48
2017-09-15T14:48:41.772Z,1.20
2017-09-15T14:51:16.326Z,1.37
2017-09-15T14:53:51.447Z,2.15
2017-09-15T14:56:26.679Z,3.35
2017-09-15T14:59:01.075Z,1.73
2017-09-15T15:01:36.275Z,1.10
2017-09-15T15:04:10.978Z,1.15
2017-09-15T15:06:46.257Z,1.65
2017-09-15T15:09:20.834Z,1.00
2017-09-15T15:11:55.336Z,1.35
2017-09-15T15:14:30.585Z,2.03
2017-09-15T15:17:05.021Z,1.73
2017-09-15T15:19:40.098Z,2.00
2017-09-15T15:22:14.498Z,2.22
2017-09-15T15:24:48.941Z,1.55
2017-09-15T15:27:23.378Z,2.00
2017-09-15T15:29:57.807Z,2.12
2017-09-15T15:32:32.389Z,2.03
2017-09-15T15:35:06.895Z,1.70
2017-09-15T15:37:41.399Z,1.92
2017-09-15T15:40:16.576Z,1.50
2017-09-15T15:42:50.963Z,1.60
2017-09-15T15:45:25.324Z,2.00
2017-09-15T15:47:59.748Z,2.62
2017-09-15T15:50:34.326Z,2.80
2017-09-15T15:53:08.737Z,2.12
2017-09-15T15:55:43.079Z,2.05
2017-09-15T15:58:17.538Z,1.90
2017-09-15T16:00:51.983Z,3.50
2017-09-15T16:03:26.320Z,2.00
2017-09-15T16:06:00.701Z,1.73
2017-09-15T16:08:35.083Z,2.03
2017-09-15T16:11:09.435Z,1.77
2017-09-15T16:13:44.189Z,1.80
2017-09-15T16:16:18.582Z,1.95
2017-09-15T16:18:53.790Z,2.25
2017-09-15T16:21:29.284Z,2.50
2017-09-15T16:24:04.479Z,1.80
2017-09-15T16:26:38.837Z,1.87
2017-09-15T16:29:13.318Z,1.60
2017-09-15T16:31:47.811Z,2.30
2017-09-15T16:34:22.202Z,1.98
2017-09-15T16:36:56.726Z,1.87
2017-09-15T16:39:37.104Z,1.95
2017-09-15T16:42:17.544Z,2.50
2017-09-15T16:44:57.586Z,3.55
2017-09-15T16:47:37.781Z,3.20
2017-09-15T16:50:12.950Z,2.50
2017-09-15T16:52:47.473Z,2.15
2017-09-15T16:55:24.368Z,2.87
2017-09-15T16:58:00.737Z,2.03
2017-09-15T17:00:35.690Z,1.80
2017-09-15T17:03:10.124Z,2.30
2017-09-15T17:05:44.561Z,2.67
2017-09-15T17:08:19.358Z,2.78
2017-09-15T17:10:54.743Z,2.40
2017-09-15T17:13:29.196Z,2.22
2017-09-15T17:16:03.741Z,3.17
2017-09-15T17:18:39.359Z,2.47
2017-09-15T17:21:14.160Z,2.65
2017-09-15T17:23:49.092Z,2.55
2017-09-15T17:26:23.664Z,2.28
2017-09-15T17:28:58.081Z,1.85
2017-09-15T17:31:32.436Z,1.87
2017-09-15T17:34:07.538Z,1.73
2017-09-15T17:36:42.974Z,1.70
2017-09-15T17:39:17.791Z,1.40
2017-09-15T17:41:53.020Z,1.40
2017-09-15T17:44:27.388Z,2.00
2017-09-15T17:47:02.960Z,1.50
2017-09-15T17:49:38.095Z,1.30
2017-09-15T17:52:12.655Z,1.23
2017-09-15T17:54:47.278Z,1.42
2017-09-15T17:57:22.794Z,1.50
2017-09-15T17:59:57.410Z,1.85
2017-09-15T18:02:31.879Z,3.05
2017-09-15T18:05:06.507Z,2.15
2017-09-15T18:07:41.127Z,4.65
2017-09-15T18:10:15.614Z,3.95
2017-09-15T18:12:49.977Z,3.10
2017-09-15T18:15:28.979Z,2.83
2017-09-15T18:18:04.290Z,3.60
2017-09-15T18:20:39.815Z,2.40
2017-09-15T18:23:15.297Z,2.30
2017-09-15T18:25:50.310Z,1.95
2017-09-15T18:28:24.791Z,2.47
2017-09-15T18:30:59.560Z,3.08
2017-09-15T18:33:34.946Z,3.08
2017-09-15T18:36:09.569Z,3.10
2017-09-15T18:38:43.871Z,3.90
2017-09-15T18:41:18.423Z,3.12
2017-09-15T18:43:53.307Z,3.33
2017-09-15T18:46:28.566Z,2.60
2017-09-15T18:49:03.820Z,3.33
2017-09-15T18:51:38.443Z,4.15
2017-09-15T18:54:13.075Z,4.10
2017-09-15T18:56:47.513Z,4.45
2017-09-15T18:59:21.998Z,5.97
2017-09-15T19:01:57.245Z,4.95
2017-09-15T19:04:31.824Z,5.22
2017-09-15T19:07:06.985Z,4.22
2017-09-15T19:09:42.685Z,3.60
2017-09-15T19:12:18.387Z,3.97
2017-09-15T19:14:52.843Z,3.60
2017-09-15T19:17:28.291Z,3.22
2017-09-15T19:20:02.595Z,3.80
2017-09-15T19:22:38.132Z,3.70
2017-09-15T19:25:12.714Z,4.65
2017-09-15T19:27:47.250Z,3.10
2017-09-15T19:30:21.774Z,3.60
2017-09-15T19:32:56.823Z,3.35
2017-09-15T19:35:31.302Z,3.40
2017-09-15T19:38:05.665Z,3.72
2017-09-15T19:40:40.401Z,4.10
2017-09-15T19:43:15.606Z,3.45
2017-09-15T19:45:50.370Z,3.67
2017-09-15T19:48:24.889Z,5.78
2017-09-15T19:50:59.288Z,4.25
2017-09-15T19:53:33.845Z,4.80
2017-09-15T19:56:09.015Z,4.57
2017-09-15T19:58:43.742Z,4.28
2017-09-15T20:01:18.270Z,3.90
2017-09-15T20:03:52.737Z,5.10
2017-09-15T20:06:28.293Z,5.10
2017-09-15T20:09:02.698Z,4.55
2017-09-15T20:11:37.329Z,4.62
2017-09-15T20:14:12.569Z,4.40
2017-09-15T20:16:48.240Z,4.05
2017-09-15T20:19:23.108Z,4.25
2017-09-15T20:21:57.736Z,5.43
2017-09-15T20:24:32.192Z,5.70
2017-09-15T20:27:06.891Z,6.78
2017-09-15T20:29:41.222Z,6.53
2017-09-15T20:32:15.523Z,5.72
2017-09-15T20:34:50.570Z,5.70
2017-09-15T20:37:25.785Z,5.90
2017-09-15T20:40:00.236Z,5.80
2017-09-15T20:42:35.218Z,6.10
2017-09-15T20:45:09.645Z,5.95
2017-09-15T20:47:44.215Z,6.75
2017-09-15T20:50:18.844Z,5.78
2017-09-15T20:52:53.340Z,7.18
2017-09-15T20:55:27.815Z,5.93
2017-09-15T20:58:02.270Z,6.82
2017-09-15T21:00:36.877Z,6.72
2017-09-15T21:03:11.318Z,6.22
2017-09-15T21:05:45.884Z,7.00
2017-09-15T21:08:20.216Z,6.80
2017-09-15T21:10:54.784Z,6.45
2017-09-15T21:13:29.130Z,8.05
2017-09-15T21:16:03.835Z,6.07
2017-09-15T21:18:38.308Z,7.22
2017-09-15T21:21:12.804Z,6.43
2017-09-15T21:23:47.218Z,6.97
2017-09-15T21:26:21.688Z,7.20
2017-09-15T21:28:56.910Z,7.47
2017-09-15T21:31:31.420Z,7.37
2017-09-15T21:34:05.902Z,8.18
2017-09-15T21:36:40.547Z,7.82
2017-09-15T21:39:15.733Z,7.35
2017-09-15T21:41:50.090Z,7.32
2017-09-15T21:44:24.800Z,7.60
2017-09-15T21:46:59.269Z,7.72
2017-09-15T21:49:33.636Z,7.50
2017-09-15T21:52:08.137Z,8.02
2017-09-15T21:54:45.660Z,8.07
2017-09-15T21:57:23.402Z,8.40
2017-09-15T21:59:57.758Z,7.60
2017-09-15T22:02:32.209Z,7.87
2017-09-15T22:05:07.424Z,8.70
2017-09-15T22:07:41.871Z,8.75
2017-09-15T22:10:24.696Z,8.75
2017-09-15T22:12:59.924Z,9.32
2017-09-15T22:15:35.232Z,8.98
2017-09-15T22:18:09.760Z,8.60
2017-09-15T22:20:44.308Z,9.55
2017-09-15T22:23:18.665Z,9.15
2017-09-15T22:25:53.219Z,8.80
2017-09-15T22:28:27.661Z,8.00
2017-09-15T22:31:02.197Z,8.80
2017-09-15T22:33:36.683Z,9.98
2017-09-15T22:36:11.146Z,8.88
2017-09-15T22:38:45.849Z,9.07
2017-09-15T22:41:20.251Z,9.07
2017-09-15T22:43:56.831Z,10.05
2017-09-15T22:46:31.415Z,12.37
2017-09-15T22:49:05.978Z,10.50
2017-09-15T22:51:41.174Z,11.80
2017-09-15T22:54:27.820Z,9.57
2017-09-15T22:57:02.316Z,11.00
2017-09-15T22:59:37.057Z,11.02
2017-09-15T23:02:11.564Z,12.50
2017-09-15T23:04:45.987Z,11.55
2017-09-15T23:07:20.740Z,12.40
2017-09-15T23:09:57.981Z,11.82
2017-09-15T23:15:37.156Z,13.45
2017-09-15T23:18:11.483Z,12.48
2017-09-15T23:20:45.982Z,12.95
2017-09-15T23:23:21.207Z,12.30
2017-09-15T23:25:55.965Z,12.90
2017-09-15T23:28:30.388Z,11.68
2017-09-15T23:31:05.523Z,11.52
2017-09-15T23:33:39.975Z,13.52
2017-09-15T23:36:14.517Z,10.77
2017-09-15T23:38:48.823Z,14.48
2017-09-15T23:41:23.203Z,13.38
2017-09-15T23:43:57.633Z,13.05
2017-09-15T23:46:32.093Z,12.65
2017-09-15T23:49:06.448Z,11.80
2017-09-15T23:51:41.080Z,13.77
2017-09-15T23:54:15.531Z,13.68
2017-09-15T23:56:49.890Z,14.43
2017-09-15T23:59:24.357Z,12.75
